Airfield :
LOGIN :

Register | Disclaimer

   EN    FR    IT 

 










Legend :    VFR   Marginal VFR   IFR   Intensive IFR   Very Intensive IFR
Visi :
Ceiling :
>= 8 km
>= 3000ft
5 to 8 km
1000 to 3000 ft
1500m to 5 km
500 to 1000 ft
800 to 1500m
200 to 500 ft
< 800m
< 200 ft
Symbols :   Thunderstorms  Fog  Heavy snow  Heavy precipitations  Wind > 20 kt
SIGMETs :     Misc.  Thunderstorms  Icing  Turbulence  Mountain Waves  Volcanic Ashes






- Airport Elevation : 13 ft
- IATA code : OST


EBOS - Oostend bruges Int.

CURRENT METAR :
  • 270720Z 16013KT 7000 -RA BKN008 03/01 Q0998 TEMPO 4000 -RASN

EXPIRED METARs :
  • 270650Z 16011KT 7000 -RA SCT008 BKN010 03/01 Q0999 TEMPO 4000 -RASN BKN008
  • 270620Z 16011KT 8000 -RA FEW009 BKN011 BKN022 03/01 Q0999 TEMPO BKN009
  • 270550Z 16010KT 9999 -RA FEW009 SCT020 BKN027 03/01 Q1000 TEMPO BKN009
  • 270520Z 16007KT 9999 -RA FEW019 BKN035 03/01 Q1001 NOSIG
  • 270450Z 20007KT 9999 -RA FEW022 SCT028 BKN033 03/01 Q1002 NOSIG

TAF TAF EBOS
Valid from the 27 at 06:00 until the 28 at 12:00 UTC


270510Z 2706/2812 17010KT 8000 -RA SCT008 BKN012
BECMG 2706/2709 4000 -RASN BKN008
TEMPO 2709/2714 2000 SNRA BKN004
PROB30 2709/2714 0500 SN VV001
BECMG 2714/2716 32020G30KT 9999 NSW FEW014TCU SCT035
PROB30
TEMPO 2716/2722 4000 SHRAGS
BECMG 2800/2802 29012KT
BECMG 2804/2806 21009KT
BECMG 2810/2812 18015G25KT



MET'MAP, your aeronautical weather chart ! - Copyright ORBIFLY December 2007 - Disclaimer

ORBIFLY MET'MAP TEAM :

Programming & Development : Alexandra Zaïnal
Concept & original design : Baudouin d'Aumeries
Assistance for programming : Marc-Olivier Méhu
Technical & hardware support : Manuel Goepfert

Contact : metmap@orbifly.com




SOURCES & CREDITS :

   NOAA